Crew | Aerofun Virtual



 METAR AND TAF INFORMATION
METAR FOR LEDA
ADDS - METARS form results

(2156 UTC 26 February 2020)
Data provider http://aviationweather.gov/metar/data/
 
METAR text: LEDA 262130Z AUTO 24009KT 200V280 CAVOK 07/02 Q1018
Conditions at: LEDA (LLEIDA-ALGUAIRE , ES) observed 2130 UTC 26 February 2020
Temperature: 7.0°C (45°F)
Dewpoint: 2.0°C (36°F) [RH = 70%]
Pressure (altimeter): 30.06 inches Hg (1018.0 mb)
Winds: from the WSW (240 degrees) at 10 MPH (9 knots; 4.6 m/s)
Visibility: 6 or more miles (10+ km)
Ceiling: ceiling and visibility are OK
Clouds: unknown
Weather: no significant weather observed at this time

METAR text: LEDA 262100Z AUTO 30012KT CAVOK 08/02 Q1018
Conditions at: LEDA (LLEIDA-ALGUAIRE , ES) observed 2100 UTC 26 February 2020
Temperature: 8.0°C (46°F)
Dewpoint: 2.0°C (36°F) [RH = 66%]
Pressure (altimeter): 30.06 inches Hg (1018.0 mb)
Winds: from the WNW (300 degrees) at 14 MPH (12 knots; 6.2 m/s)
Visibility: 6 or more miles (10+ km)
Ceiling: ceiling and visibility are OK
Clouds: unknown
Weather: no significant weather observed at this time

 AIRPORT MAP

 RUNWAY INFORMATION

 AIRPORT FREQUENCIES

 AIRPORT NEAR NAVIGATION AIDS